createdAt,value
2019-02-27T00:00:21.815Z,8.70
2019-02-27T00:02:48.967Z,9.20
2019-02-27T00:05:16.121Z,9.43
2019-02-27T00:07:43.308Z,11.00
2019-02-27T00:10:10.644Z,8.67
2019-02-27T00:12:37.781Z,7.87
2019-02-27T00:15:06.056Z,8.33
2019-02-27T00:17:33.203Z,8.07
2019-02-27T00:20:04.067Z,8.87
2019-02-27T00:22:29.445Z,8.53
2019-02-27T00:24:56.587Z,8.43
2019-02-27T00:27:24.050Z,8.07
2019-02-27T00:29:51.280Z,8.00
2019-02-27T00:32:19.174Z,7.87
2019-02-27T00:34:46.594Z,7.30
2019-02-27T00:37:13.880Z,6.90
2019-02-27T00:39:41.036Z,6.30
2019-02-27T00:42:08.181Z,8.00
2019-02-27T00:44:35.382Z,7.50
2019-02-27T00:47:02.533Z,6.87
2019-02-27T00:49:29.863Z,6.93
2019-02-27T00:51:58.657Z,8.53
2019-02-27T00:54:25.795Z,10.23
2019-02-27T00:56:52.957Z,7.77
2019-02-27T00:59:20.135Z,7.10
2019-02-27T01:01:47.978Z,7.00
2019-02-27T01:04:15.203Z,6.53
2019-02-27T01:06:42.441Z,6.37
2019-02-27T01:09:10.284Z,6.67
2019-02-27T01:11:37.475Z,7.33
2019-02-27T01:14:04.650Z,6.83
2019-02-27T01:16:31.768Z,7.57
2019-02-27T01:18:58.945Z,6.57
2019-02-27T01:21:26.102Z,6.13
2019-02-27T01:23:53.349Z,5.80
2019-02-27T01:26:20.525Z,6.60
2019-02-27T01:28:47.664Z,6.33
2019-02-27T01:31:14.928Z,6.20
2019-02-27T01:33:42.093Z,6.23
2019-02-27T01:36:09.245Z,6.30
2019-02-27T01:38:38.143Z,7.27
2019-02-27T01:41:05.386Z,7.60
2019-02-27T01:43:32.524Z,8.83
2019-02-27T01:45:59.688Z,12.13
2019-02-27T01:48:26.832Z,10.40
2019-02-27T01:50:55.204Z,10.30
2019-02-27T01:53:23.073Z,13.23
2019-02-27T01:55:50.264Z,11.43
2019-02-27T01:58:17.408Z,9.37
2019-02-27T02:00:44.571Z,10.27
2019-02-27T02:03:13.683Z,7.93
2019-02-27T02:05:40.704Z,8.67
2019-02-27T02:08:07.844Z,8.60
2019-02-27T02:10:35.148Z,8.47
2019-02-27T02:13:15.147Z,9.83
2019-02-27T02:15:52.401Z,9.90
2019-02-27T02:18:35.274Z,10.00
2019-02-27T02:21:40.530Z,11.13
2019-02-27T02:24:26.403Z,11.03
2019-02-27T02:27:02.916Z,10.57
2019-02-27T02:29:33.682Z,11.23
2019-02-27T02:32:04.430Z,10.57
2019-02-27T02:34:53.088Z,11.83
2019-02-27T02:37:26.800Z,12.63
2019-02-27T02:40:30.868Z,13.43
2019-02-27T02:43:27.436Z,13.70
2019-02-27T02:46:08.623Z,14.97
2019-02-27T02:48:43.203Z,14.57
2019-02-27T02:51:28.978Z,15.57
2019-02-27T02:54:13.574Z,16.47
2019-02-27T02:56:44.559Z,21.87
2019-02-27T02:59:48.551Z,23.67
2019-02-27T03:02:37.238Z,26.17
2019-02-27T03:05:23.346Z,19.77
2019-02-27T03:07:55.695Z,19.17
2019-02-27T03:10:46.128Z,18.57
2019-02-27T03:13:34.750Z,20.17
2019-02-27T03:16:17.576Z,19.20
2019-02-27T03:18:51.119Z,20.33
2019-02-27T03:21:27.326Z,20.43
2019-02-27T03:24:13.523Z,20.07
2019-02-27T03:27:03.876Z,14.73
2019-02-27T03:29:55.189Z,13.40
2019-02-27T03:32:43.202Z,13.87
2019-02-27T03:35:31.234Z,13.53
2019-02-27T03:38:04.700Z,27.60
2019-02-27T03:40:45.036Z,13.27
2019-02-27T03:43:28.606Z,15.50
2019-02-27T03:46:28.048Z,12.57
2019-02-27T03:49:04.882Z,6.40
2019-02-27T03:51:35.619Z,5.90
2019-02-27T03:54:34.581Z,12.40
2019-02-27T03:57:08.274Z,12.33
2019-02-27T03:59:42.442Z,9.10
2019-02-27T04:02:11.616Z,7.47
2019-02-27T04:05:11.199Z,8.50
2019-02-27T04:08:09.067Z,7.53
2019-02-27T04:10:36.650Z,7.77
2019-02-27T04:13:03.790Z,7.47
2019-02-27T04:15:31.044Z,8.23
2019-02-27T04:17:57.903Z,8.80
2019-02-27T04:20:25.151Z,12.07
2019-02-27T04:22:52.363Z,12.47
2019-02-27T04:25:19.491Z,12.60
2019-02-27T04:27:46.634Z,12.70
2019-02-27T04:30:15.683Z,13.13
2019-02-27T04:32:47.639Z,14.33
2019-02-27T04:35:11.827Z,12.87
2019-02-27T04:37:39.023Z,12.67
2019-02-27T04:40:11.055Z,12.20
2019-02-27T04:42:36.003Z,16.17
2019-02-27T04:45:04.306Z,16.47
2019-02-27T04:47:31.477Z,18.57
2019-02-27T04:49:58.617Z,17.57
2019-02-27T04:52:25.776Z,17.33
2019-02-27T04:54:52.916Z,16.70
2019-02-27T04:57:20.079Z,14.20
2019-02-27T04:59:49.692Z,15.63
2019-02-27T05:02:16.295Z,12.90
2019-02-27T05:04:43.463Z,13.97
2019-02-27T05:07:10.671Z,14.40
2019-02-27T05:09:37.853Z,12.93
2019-02-27T05:12:05.048Z,12.60
2019-02-27T05:14:32.207Z,13.73
2019-02-27T05:16:59.735Z,13.93
2019-02-27T05:19:26.908Z,13.00
2019-02-27T05:21:54.039Z,12.73
2019-02-27T05:24:21.246Z,13.27
2019-02-27T05:26:48.399Z,13.37
2019-02-27T05:29:15.889Z,13.13
2019-02-27T05:31:43.157Z,14.73
2019-02-27T05:34:13.592Z,13.57
2019-02-27T05:36:39.240Z,13.30
2019-02-27T05:39:06.508Z,22.37
2019-02-27T05:41:33.776Z,26.90
2019-02-27T05:44:01.057Z,24.37
2019-02-27T05:46:28.287Z,22.70
2019-02-27T05:48:55.532Z,23.17
2019-02-27T05:51:22.704Z,18.70
2019-02-27T05:53:49.902Z,16.23
2019-02-27T05:56:16.940Z,22.30
2019-02-27T05:58:44.073Z,25.93
2019-02-27T06:01:11.345Z,23.30
2019-02-27T06:03:38.535Z,24.87
2019-02-27T06:06:06.762Z,18.40
2019-02-27T06:08:36.722Z,15.57
2019-02-27T06:11:03.137Z,13.53
2019-02-27T06:13:30.525Z,14.77
2019-02-27T06:16:02.722Z,18.03
2019-02-27T06:18:26.629Z,17.23
2019-02-27T06:20:53.827Z,16.40
2019-02-27T06:23:20.965Z,16.00
2019-02-27T06:25:48.144Z,15.50
2019-02-27T06:28:18.483Z,15.93
2019-02-27T06:30:44.472Z,16.20
2019-02-27T06:33:12.340Z,13.63
2019-02-27T06:35:39.617Z,13.93
2019-02-27T06:38:06.893Z,14.67
2019-02-27T06:40:34.084Z,14.53
2019-02-27T06:43:01.228Z,12.57
2019-02-27T06:45:28.486Z,17.83
2019-02-27T06:47:55.651Z,16.77
2019-02-27T06:50:25.124Z,15.80
2019-02-27T06:52:51.751Z,14.77
2019-02-27T06:55:19.012Z,13.57
2019-02-27T06:57:46.176Z,14.00
2019-02-27T07:00:19.698Z,13.23
2019-02-27T07:02:46.855Z,13.57
2019-02-27T07:05:14.154Z,14.20
2019-02-27T07:07:41.377Z,15.10
2019-02-27T07:10:11.066Z,13.97
2019-02-27T07:12:38.323Z,15.83
2019-02-27T07:15:12.791Z,15.30
2019-02-27T07:17:40.498Z,13.97
2019-02-27T07:20:10.632Z,13.37
2019-02-27T07:22:37.791Z,13.70
2019-02-27T07:25:07.730Z,13.87
2019-02-27T07:27:34.996Z,14.70
2019-02-27T07:30:04.895Z,15.27
2019-02-27T07:32:31.589Z,14.73
2019-02-27T07:34:59.263Z,16.17
2019-02-27T07:37:26.437Z,14.20
2019-02-27T07:39:53.571Z,16.17
2019-02-27T07:42:20.727Z,17.50
2019-02-27T07:44:47.918Z,17.67
2019-02-27T07:47:15.106Z,19.30
2019-02-27T07:49:42.352Z,16.63
2019-02-27T07:52:09.493Z,17.40
2019-02-27T07:54:36.632Z,18.63
2019-02-27T07:57:03.850Z,18.55
2019-02-27T07:59:31.099Z,18.57
2019-02-27T08:02:02.078Z,13.98
2019-02-27T08:04:27.313Z,17.42
2019-02-27T08:06:54.455Z,9.90
2019-02-27T08:09:21.638Z,15.35
2019-02-27T08:11:48.837Z,11.60
2019-02-27T08:14:15.980Z,10.80
2019-02-27T08:16:43.141Z,9.23
2019-02-27T08:19:11.567Z,9.40
2019-02-27T08:21:39.526Z,8.65
2019-02-27T08:24:07.594Z,7.67
2019-02-27T08:26:36.459Z,8.40
2019-02-27T08:29:03.939Z,8.40
2019-02-27T08:31:32.091Z,8.18
2019-02-27T08:33:59.292Z,8.28
2019-02-27T08:36:26.434Z,8.48
2019-02-27T08:38:53.659Z,8.98
2019-02-27T08:41:20.954Z,8.70
2019-02-27T08:43:48.199Z,8.55
2019-02-27T08:46:15.384Z,9.15
2019-02-27T08:48:42.633Z,9.03
2019-02-27T08:51:09.818Z,9.58
2019-02-27T08:53:37.192Z,10.38
2019-02-27T08:56:04.331Z,10.90
2019-02-27T08:58:32.985Z,10.03
2019-02-27T09:01:00.748Z,11.28
2019-02-27T09:03:27.925Z,11.70
2019-02-27T09:05:55.061Z,10.65
2019-02-27T09:08:22.338Z,11.50
2019-02-27T09:10:49.499Z,11.30
2019-02-27T09:13:16.649Z,11.15
2019-02-27T09:15:43.806Z,11.25
2019-02-27T09:18:10.943Z,10.13
2019-02-27T09:20:38.157Z,11.80
2019-02-27T09:23:05.377Z,11.35
2019-02-27T09:25:32.522Z,12.33
2019-02-27T09:27:59.687Z,11.97
2019-02-27T09:30:29.358Z,12.07
2019-02-27T09:32:55.787Z,11.45
2019-02-27T09:35:22.957Z,12.58
2019-02-27T09:37:51.380Z,12.85
2019-02-27T09:40:24.817Z,17.60
2019-02-27T09:42:52.994Z,13.83
2019-02-27T09:45:35.301Z,13.50
2019-02-27T09:48:03.571Z,13.93
2019-02-27T09:50:38.394Z,15.05
2019-02-27T09:53:05.640Z,14.68
2019-02-27T09:55:32.791Z,15.53
2019-02-27T09:58:00.316Z,16.25
2019-02-27T10:00:35.374Z,15.60
2019-02-27T10:03:03.335Z,16.05
2019-02-27T10:05:30.661Z,17.27
2019-02-27T10:07:57.803Z,17.30
2019-02-27T10:10:24.952Z,18.40
2019-02-27T10:12:52.150Z,19.45
2019-02-27T10:15:19.323Z,19.70
2019-02-27T10:17:46.479Z,19.20
2019-02-27T10:20:13.669Z,18.80
2019-02-27T10:22:40.803Z,20.32
2019-02-27T10:25:08.727Z,21.15
2019-02-27T10:27:36.769Z,21.70
2019-02-27T10:30:11.553Z,21.20
2019-02-27T10:32:36.683Z,18.98
2019-02-27T10:35:05.293Z,19.35
2019-02-27T10:37:32.457Z,21.12
2019-02-27T10:39:59.710Z,21.23
2019-02-27T10:42:26.840Z,20.72
2019-02-27T10:44:54.070Z,21.27
2019-02-27T10:47:21.199Z,20.08
2019-02-27T10:49:48.356Z,20.37
2019-02-27T10:52:15.515Z,19.00
2019-02-27T10:54:42.737Z,20.12
2019-02-27T10:57:09.898Z,22.00
2019-02-27T10:59:37.145Z,19.95
2019-02-27T11:02:04.334Z,24.12
2019-02-27T11:04:31.479Z,26.87
2019-02-27T11:06:58.726Z,27.22
2019-02-27T11:09:26.691Z,30.62
2019-02-27T11:11:54.499Z,35.78
2019-02-27T11:14:21.974Z,31.82
2019-02-27T11:16:49.248Z,29.72
2019-02-27T11:19:16.765Z,26.05
2019-02-27T11:21:44.429Z,24.40
2019-02-27T11:24:11.571Z,24.05
2019-02-27T11:26:38.714Z,24.50
2019-02-27T11:29:05.894Z,23.87
2019-02-27T11:31:33.144Z,22.90
2019-02-27T11:34:01.150Z,21.68
2019-02-27T11:36:28.369Z,21.33
2019-02-27T11:38:58.829Z,21.40
2019-02-27T11:41:24.524Z,20.72
2019-02-27T11:43:52.743Z,22.25
2019-02-27T11:46:20.000Z,20.15
2019-02-27T11:48:47.208Z,19.85
2019-02-27T11:51:14.350Z,20.35
2019-02-27T11:53:41.492Z,22.35
2019-02-27T11:56:08.697Z,22.80
2019-02-27T11:58:38.459Z,23.60
2019-02-27T12:01:05.067Z,23.50
2019-02-27T12:03:32.457Z,23.67
2019-02-27T12:05:59.678Z,23.73
2019-02-27T12:08:26.951Z,34.08
2019-02-27T12:10:54.161Z,27.70
2019-02-27T12:13:21.307Z,23.65
2019-02-27T12:15:48.440Z,23.90
2019-02-27T12:18:15.664Z,23.67
2019-02-27T12:20:42.807Z,23.15
2019-02-27T12:23:10.725Z,27.25
2019-02-27T12:25:38.031Z,24.15
2019-02-27T12:28:06.680Z,24.72
2019-02-27T12:30:37.132Z,23.47
2019-02-27T12:33:02.887Z,23.98
2019-02-27T12:35:34.077Z,23.75
2019-02-27T12:38:01.327Z,26.05
2019-02-27T12:40:28.557Z,27.10
2019-02-27T12:42:55.771Z,24.32
2019-02-27T12:45:29.745Z,24.35
2019-02-27T12:47:57.284Z,23.18
2019-02-27T12:50:30.861Z,25.32
2019-02-27T12:52:55.820Z,28.38
2019-02-27T12:55:23.355Z,24.85
2019-02-27T12:57:52.346Z,24.60
2019-02-27T13:00:23.379Z,23.92
2019-02-27T13:02:50.619Z,25.17
2019-02-27T13:05:18.865Z,24.47
2019-02-27T13:07:46.038Z,24.05
2019-02-27T13:10:18.739Z,23.52
2019-02-27T13:12:45.881Z,22.25
2019-02-27T13:15:17.892Z,22.07
2019-02-27T13:17:45.036Z,22.17
2019-02-27T13:20:14.689Z,19.55
2019-02-27T13:22:41.988Z,20.80
2019-02-27T13:25:09.138Z,20.62
2019-02-27T13:27:36.316Z,21.77
2019-02-27T13:30:12.939Z,19.98
2019-02-27T13:32:40.101Z,19.80
2019-02-27T13:35:07.490Z,20.40
2019-02-27T13:37:34.784Z,19.75
2019-02-27T13:40:02.362Z,20.37
2019-02-27T13:42:29.610Z,20.60
2019-02-27T13:44:56.757Z,18.45
2019-02-27T13:47:23.951Z,20.12
2019-02-27T13:49:51.112Z,19.30
2019-02-27T13:52:18.249Z,19.77
2019-02-27T13:54:45.517Z,18.90
2019-02-27T13:57:12.726Z,20.02
2019-02-27T13:59:42.170Z,18.90
2019-02-27T14:02:11.183Z,19.05
2019-02-27T14:04:37.886Z,18.32
2019-02-27T14:07:05.031Z,19.60
2019-02-27T14:09:32.169Z,20.00
2019-02-27T14:11:59.472Z,18.52
2019-02-27T14:14:26.588Z,17.98
2019-02-27T14:16:53.751Z,17.27
2019-02-27T14:19:21.343Z,17.07
2019-02-27T14:21:50.000Z,17.20
2019-02-27T14:24:20.314Z,18.12
2019-02-27T14:26:46.139Z,17.85
2019-02-27T14:29:13.284Z,19.27
2019-02-27T14:31:43.441Z,19.92
2019-02-27T14:34:09.410Z,19.85
2019-02-27T14:36:39.390Z,19.05
2019-02-27T14:39:07.423Z,17.62
2019-02-27T14:41:34.595Z,16.45
2019-02-27T14:44:01.799Z,16.85
2019-02-27T14:46:28.940Z,16.60
2019-02-27T14:48:56.122Z,16.37
2019-02-27T14:51:23.263Z,15.70
2019-02-27T14:53:52.649Z,15.90
2019-02-27T14:56:19.516Z,16.97
2019-02-27T14:58:46.765Z,18.15
2019-02-27T15:01:14.501Z,15.98
2019-02-27T15:03:42.218Z,15.10
2019-02-27T15:06:09.370Z,14.55
2019-02-27T15:08:36.573Z,12.82
2019-02-27T15:11:03.755Z,12.00
2019-02-27T15:13:31.000Z,13.40
2019-02-27T15:15:58.184Z,12.93
2019-02-27T15:18:25.812Z,12.50
2019-02-27T15:20:53.081Z,11.60
2019-02-27T15:23:20.516Z,11.48
2019-02-27T15:25:47.770Z,10.98
2019-02-27T15:28:14.916Z,10.13
2019-02-27T15:30:46.413Z,10.08
2019-02-27T15:33:10.963Z,10.90
2019-02-27T15:35:38.108Z,10.00
2019-02-27T15:38:05.276Z,10.23
2019-02-27T15:40:32.427Z,10.18
2019-02-27T15:42:59.617Z,9.58
2019-02-27T15:45:27.556Z,9.93
2019-02-27T15:47:54.702Z,10.82
2019-02-27T15:50:31.716Z,11.18
2019-02-27T15:52:58.960Z,11.45
2019-02-27T15:55:26.153Z,11.97
2019-02-27T15:57:54.138Z,12.13
2019-02-27T16:00:23.022Z,10.70
2019-02-27T16:02:50.341Z,10.95
2019-02-27T16:05:17.582Z,11.55
2019-02-27T16:07:48.516Z,11.12
2019-02-27T16:10:23.903Z,11.33
2019-02-27T16:12:51.271Z,11.38
2019-02-27T16:15:19.827Z,12.63
2019-02-27T16:17:47.111Z,13.38
2019-02-27T16:20:27.290Z,13.20
2019-02-27T16:22:54.668Z,15.45
2019-02-27T16:25:22.742Z,12.53
2019-02-27T16:27:50.063Z,14.07
2019-02-27T16:30:19.648Z,13.83
2019-02-27T16:32:48.651Z,13.93
2019-02-27T16:35:16.073Z,12.97
2019-02-27T16:37:43.347Z,13.48
2019-02-27T16:40:17.370Z,13.53
2019-02-27T16:42:42.669Z,13.75
2019-02-27T16:45:15.074Z,13.22
2019-02-27T16:47:42.346Z,13.90
2019-02-27T16:50:12.540Z,13.50
2019-02-27T16:52:42.218Z,16.82
2019-02-27T16:55:14.077Z,15.13
2019-02-27T16:57:41.349Z,16.17
2019-02-27T17:00:11.784Z,15.25
2019-02-27T17:02:39.082Z,15.35
2019-02-27T17:05:09.471Z,14.47
2019-02-27T17:07:36.827Z,15.03
2019-02-27T17:10:07.709Z,14.77
2019-02-27T17:12:34.954Z,15.98
2019-02-27T17:15:02.256Z,15.63
2019-02-27T17:17:29.520Z,16.00
2019-02-27T17:19:56.859Z,16.00
2019-02-27T17:22:24.125Z,15.33
2019-02-27T17:24:52.174Z,14.60
2019-02-27T17:27:20.515Z,13.83
2019-02-27T17:29:47.766Z,14.43
2019-02-27T17:32:15.040Z,12.47
2019-02-27T17:34:42.326Z,14.47
2019-02-27T17:37:09.591Z,10.87
2019-02-27T17:39:36.902Z,13.67
2019-02-27T17:42:04.197Z,13.53
2019-02-27T17:44:31.450Z,13.97
2019-02-27T17:46:58.781Z,13.50
2019-02-27T17:49:26.201Z,13.27
2019-02-27T17:51:53.601Z,12.77
2019-02-27T17:54:20.868Z,14.60
2019-02-27T17:56:50.019Z,14.10
2019-02-27T17:59:17.192Z,13.90
2019-02-27T18:01:44.449Z,15.77
2019-02-27T18:04:14.160Z,14.67
2019-02-27T18:06:40.780Z,16.67
2019-02-27T18:09:08.503Z,15.90
2019-02-27T18:11:35.793Z,15.43
2019-02-27T18:14:03.113Z,16.30
2019-02-27T18:16:30.370Z,17.63
2019-02-27T18:18:58.830Z,18.17
2019-02-27T18:21:27.739Z,16.50
2019-02-27T18:23:58.948Z,16.23
2019-02-27T18:26:24.555Z,17.03
2019-02-27T18:28:51.847Z,17.57
2019-02-27T18:31:19.114Z,17.13
2019-02-27T18:33:49.453Z,16.40
2019-02-27T18:36:17.513Z,17.97
2019-02-27T18:38:44.865Z,17.10
2019-02-27T18:41:17.473Z,16.80
2019-02-27T18:43:44.978Z,17.10
2019-02-27T18:46:12.401Z,14.70
2019-02-27T18:48:43.524Z,16.97
2019-02-27T18:51:08.939Z,17.73
2019-02-27T18:53:36.330Z,16.00
2019-02-27T18:56:03.707Z,16.50
2019-02-27T18:58:31.049Z,17.53
2019-02-27T19:00:58.329Z,17.63
2019-02-27T19:03:26.369Z,17.57
2019-02-27T19:05:53.715Z,17.93
2019-02-27T19:08:21.006Z,17.53
2019-02-27T19:10:48.275Z,15.60
2019-02-27T19:13:15.660Z,17.90
2019-02-27T19:15:46.317Z,17.17
2019-02-27T19:18:12.614Z,17.27
2019-02-27T19:20:44.406Z,18.87
2019-02-27T19:23:11.687Z,17.37
2019-02-27T19:25:39.427Z,17.10
2019-02-27T19:28:06.716Z,16.73
2019-02-27T19:30:34.761Z,17.37
2019-02-27T19:33:03.384Z,14.50
2019-02-27T19:35:30.809Z,17.83
2019-02-27T19:37:59.611Z,17.93
2019-02-27T19:40:30.068Z,18.37
2019-02-27T19:43:00.674Z,16.97
2019-02-27T19:45:28.325Z,17.77
2019-02-27T19:47:55.928Z,17.80
2019-02-27T19:50:23.242Z,17.33
2019-02-27T19:52:54.881Z,18.20
2019-02-27T19:55:26.246Z,16.53
2019-02-27T19:57:51.531Z,16.40
2019-02-27T20:00:23.933Z,18.20
2019-02-27T20:02:55.188Z,16.57
2019-02-27T20:05:20.964Z,15.83
2019-02-27T20:07:50.405Z,17.93
2019-02-27T20:10:17.421Z,16.17
2019-02-27T20:12:47.787Z,17.83
2019-02-27T20:15:19.336Z,14.97
2019-02-27T20:17:47.097Z,17.00
2019-02-27T20:20:16.862Z,16.47
2019-02-27T20:22:44.112Z,17.40
2019-02-27T20:25:18.008Z,17.50
2019-02-27T20:27:45.513Z,15.77
2019-02-27T20:30:22.054Z,17.03
2019-02-27T20:32:49.469Z,16.13
2019-02-27T20:35:17.339Z,15.90
2019-02-27T20:37:46.148Z,15.60
2019-02-27T20:40:15.176Z,16.37
2019-02-27T20:42:43.781Z,16.67
2019-02-27T20:45:13.112Z,17.23
2019-02-27T20:47:40.374Z,17.60
2019-02-27T20:50:11.077Z,19.20
2019-02-27T20:52:38.328Z,17.63
2019-02-27T20:55:05.876Z,16.53
2019-02-27T20:57:33.153Z,17.07
2019-02-27T21:00:02.466Z,18.87
2019-02-27T21:02:29.501Z,21.27
2019-02-27T21:04:56.743Z,21.07
2019-02-27T21:07:26.208Z,21.07
2019-02-27T21:09:53.104Z,21.53
2019-02-27T21:12:20.366Z,19.43
2019-02-27T21:14:47.614Z,18.10
2019-02-27T21:17:16.493Z,17.60
2019-02-27T21:19:43.981Z,17.67
2019-02-27T21:22:11.238Z,18.87
2019-02-27T21:24:40.576Z,22.10
2019-02-27T21:27:07.664Z,21.20
2019-02-27T21:29:34.945Z,19.23
2019-02-27T21:32:02.372Z,24.27
2019-02-27T21:34:29.706Z,26.63
2019-02-27T21:36:56.927Z,27.37
2019-02-27T21:39:25.179Z,23.67
2019-02-27T21:41:53.067Z,24.37
2019-02-27T21:44:25.470Z,22.27
2019-02-27T21:46:49.395Z,18.93
2019-02-27T21:49:17.048Z,23.50
2019-02-27T21:51:47.736Z,24.07
2019-02-27T21:54:13.409Z,21.10
2019-02-27T21:56:40.659Z,20.93
2019-02-27T21:59:07.946Z,18.90
2019-02-27T22:01:35.195Z,19.97
2019-02-27T22:04:02.487Z,18.00
2019-02-27T22:06:29.720Z,20.80
2019-02-27T22:08:56.992Z,22.13
2019-02-27T22:11:27.131Z,23.53
2019-02-27T22:13:53.345Z,26.23
2019-02-27T22:16:20.672Z,22.30
2019-02-27T22:18:47.985Z,22.50
2019-02-27T22:21:15.260Z,29.30
2019-02-27T22:23:44.872Z,30.90
2019-02-27T22:26:11.643Z,20.47
2019-02-27T22:28:38.920Z,18.50
2019-02-27T22:31:07.574Z,19.23
2019-02-27T22:33:34.977Z,16.17
2019-02-27T22:36:02.232Z,16.23
2019-02-27T22:38:29.564Z,17.50
2019-02-27T22:40:56.835Z,16.60
2019-02-27T22:43:24.116Z,16.07
2019-02-27T22:45:51.421Z,16.07
2019-02-27T22:48:18.675Z,15.87
2019-02-27T22:50:45.942Z,16.30
2019-02-27T22:53:13.211Z,15.70
2019-02-27T22:55:42.296Z,16.40
2019-02-27T22:58:09.555Z,16.03
2019-02-27T23:00:56.119Z,20.43
2019-02-27T23:03:29.571Z,21.70
2019-02-27T23:05:56.883Z,17.40
2019-02-27T23:08:24.336Z,17.07
2019-02-27T23:10:51.593Z,18.63
2019-02-27T23:13:19.056Z,19.23
2019-02-27T23:15:46.307Z,17.90
2019-02-27T23:18:13.565Z,18.00
2019-02-27T23:20:40.971Z,19.30
2019-02-27T23:23:08.231Z,21.77
2019-02-27T23:25:35.480Z,20.57
2019-02-27T23:28:02.752Z,24.33
2019-02-27T23:30:30.029Z,22.80
2019-02-27T23:32:59.380Z,18.53
2019-02-27T23:35:26.340Z,17.13
2019-02-27T23:37:53.611Z,16.27
2019-02-27T23:40:20.988Z,16.67
2019-02-27T23:42:48.261Z,16.20
2019-02-27T23:45:15.510Z,15.33
2019-02-27T23:47:42.787Z,16.00
2019-02-27T23:50:12.065Z,15.63
2019-02-27T23:52:39.399Z,19.00
2019-02-27T23:55:07.084Z,16.80
2019-02-27T23:57:35.617Z,14.23
